sensor_id;sensor_type;location;lat;lon;timestamp;temperature;humidity
26224;DHT22;14820;48.682;8.890;2022-11-13T00:00:53;3.00;99.90
26224;DHT22;14820;48.682;8.890;2022-11-13T00:03:19;3.00;99.90
26224;DHT22;14820;48.682;8.890;2022-11-13T00:05:45;3.00;99.90
26224;DHT22;14820;48.682;8.890;2022-11-13T00:08:10;3.00;99.90
26224;DHT22;14820;48.682;8.890;2022-11-13T00:10:37;3.00;99.90
26224;DHT22;14820;48.682;8.890;2022-11-13T00:13:02;2.90;99.90
26224;DHT22;14820;48.682;8.890;2022-11-13T00:15:28;2.90;99.90
26224;DHT22;14820;48.682;8.890;2022-11-13T00:17:54;2.80;99.90
26224;DHT22;14820;48.682;8.890;2022-11-13T00:20:19;2.80;99.90
26224;DHT22;14820;48.682;8.890;2022-11-13T00:22:45;2.80;99.90
26224;DHT22;14820;48.682;8.890;2022-11-13T00:25:11;2.80;99.90
26224;DHT22;14820;48.682;8.890;2022-11-13T00:27:36;2.80;99.90
26224;DHT22;14820;48.682;8.890;2022-11-13T00:30:03;2.80;99.90
26224;DHT22;14820;48.682;8.890;2022-11-13T00:32:29;2.80;99.90
26224;DHT22;14820;48.682;8.890;2022-11-13T00:34:55;2.70;99.90
26224;DHT22;14820;48.682;8.890;2022-11-13T00:37:20;2.80;99.90
26224;DHT22;14820;48.682;8.890;2022-11-13T00:39:46;2.70;99.90
26224;DHT22;14820;48.682;8.890;2022-11-13T00:42:11;2.70;99.90
26224;DHT22;14820;48.682;8.890;2022-11-13T00:44:37;2.70;99.90
26224;DHT22;14820;48.682;8.890;2022-11-13T00:47:03;2.70;99.90
26224;DHT22;14820;48.682;8.890;2022-11-13T00:49:28;2.70;99.90
26224;DHT22;14820;48.682;8.890;2022-11-13T00:51:54;2.70;99.90
26224;DHT22;14820;48.682;8.890;2022-11-13T00:54:20;2.70;99.90
26224;DHT22;14820;48.682;8.890;2022-11-13T00:56:45;2.60;99.90
26224;DHT22;14820;48.682;8.890;2022-11-13T00:59:11;2.70;99.90
26224;DHT22;14820;48.682;8.890;2022-11-13T01:01:37;2.60;99.90
26224;DHT22;14820;48.682;8.890;2022-11-13T01:04:02;2.50;99.90
26224;DHT22;14820;48.682;8.890;2022-11-13T01:06:28;2.50;99.90
26224;DHT22;14820;48.682;8.890;2022-11-13T01:08:55;2.50;99.90
26224;DHT22;14820;48.682;8.890;2022-11-13T01:11:23;2.50;99.90
26224;DHT22;14820;48.682;8.890;2022-11-13T01:13:50;2.50;99.90
26224;DHT22;14820;48.682;8.890;2022-11-13T01:16:19;2.50;99.90
26224;DHT22;14820;48.682;8.890;2022-11-13T01:18:45;2.60;99.90
26224;DHT22;14820;48.682;8.890;2022-11-13T01:21:12;2.50;99.90
26224;DHT22;14820;48.682;8.890;2022-11-13T01:23:38;2.40;99.90
26224;DHT22;14820;48.682;8.890;2022-11-13T01:26:26;2.40;99.90
26224;DHT22;14820;48.682;8.890;2022-11-13T01:28:53;2.40;99.90
26224;DHT22;14820;48.682;8.890;2022-11-13T01:31:22;2.40;99.90
26224;DHT22;14820;48.682;8.890;2022-11-13T01:33:48;2.30;99.90
26224;DHT22;14820;48.682;8.890;2022-11-13T01:36:19;2.40;99.90
26224;DHT22;14820;48.682;8.890;2022-11-13T01:38:46;2.40;99.90
26224;DHT22;14820;48.682;8.890;2022-11-13T01:41:18;2.40;99.90
26224;DHT22;14820;48.682;8.890;2022-11-13T01:43:45;2.30;99.90
26224;DHT22;14820;48.682;8.890;2022-11-13T01:54:03;2.20;99.90
26224;DHT22;14820;48.682;8.890;2022-11-13T01:56:29;2.20;99.90
26224;DHT22;14820;48.682;8.890;2022-11-13T01:59:08;2.20;99.90
26224;DHT22;14820;48.682;8.890;2022-11-13T02:01:34;2.20;99.90
26224;DHT22;14820;48.682;8.890;2022-11-13T02:03:59;2.10;99.90
26224;DHT22;14820;48.682;8.890;2022-11-13T02:06:29;2.20;99.90
26224;DHT22;14820;48.682;8.890;2022-11-13T02:08:56;2.20;99.90
26224;DHT22;14820;48.682;8.890;2022-11-13T02:11:21;2.20;99.90
26224;DHT22;14820;48.682;8.890;2022-11-13T02:13:47;2.20;99.90
26224;DHT22;14820;48.682;8.890;2022-11-13T02:16:14;2.20;99.90
26224;DHT22;14820;48.682;8.890;2022-11-13T02:18:41;2.20;99.90
26224;DHT22;14820;48.682;8.890;2022-11-13T02:23:47;2.10;99.90
26224;DHT22;14820;48.682;8.890;2022-11-13T02:26:16;2.10;99.90
26224;DHT22;14820;48.682;8.890;2022-11-13T02:28:44;2.00;99.90
26224;DHT22;14820;48.682;8.890;2022-11-13T02:31:11;2.00;99.90
26224;DHT22;14820;48.682;8.890;2022-11-13T02:33:37;2.00;99.90
26224;DHT22;14820;48.682;8.890;2022-11-13T02:36:04;2.00;99.90
26224;DHT22;14820;48.682;8.890;2022-11-13T02:38:32;2.00;99.90
26224;DHT22;14820;48.682;8.890;2022-11-13T02:40:59;2.00;99.90
26224;DHT22;14820;48.682;8.890;2022-11-13T02:43:25;2.00;99.90
26224;DHT22;14820;48.682;8.890;2022-11-13T02:45:50;2.00;99.90
26224;DHT22;14820;48.682;8.890;2022-11-13T02:48:16;2.00;99.90
26224;DHT22;14820;48.682;8.890;2022-11-13T02:50:42;2.00;99.90
26224;DHT22;14820;48.682;8.890;2022-11-13T02:53:08;2.10;99.90
26224;DHT22;14820;48.682;8.890;2022-11-13T02:55:34;2.10;99.90
26224;DHT22;14820;48.682;8.890;2022-11-13T02:57:59;2.00;99.90
26224;DHT22;14820;48.682;8.890;2022-11-13T03:00:25;2.00;99.90
26224;DHT22;14820;48.682;8.890;2022-11-13T03:02:51;1.90;99.90
26224;DHT22;14820;48.682;8.890;2022-11-13T03:05:17;1.90;99.90
26224;DHT22;14820;48.682;8.890;2022-11-13T03:07:43;1.90;99.90
26224;DHT22;14820;48.682;8.890;2022-11-13T03:10:09;1.90;99.90
26224;DHT22;14820;48.682;8.890;2022-11-13T03:12:36;1.90;99.90
26224;DHT22;14820;48.682;8.890;2022-11-13T03:15:02;1.80;99.90
26224;DHT22;14820;48.682;8.890;2022-11-13T03:17:30;1.80;99.90
26224;DHT22;14820;48.682;8.890;2022-11-13T03:19:56;1.80;99.90
26224;DHT22;14820;48.682;8.890;2022-11-13T03:22:21;1.80;99.90
26224;DHT22;14820;48.682;8.890;2022-11-13T03:24:47;1.80;99.90
26224;DHT22;14820;48.682;8.890;2022-11-13T03:27:12;1.80;99.90
26224;DHT22;14820;48.682;8.890;2022-11-13T03:29:38;1.80;99.90
26224;DHT22;14820;48.682;8.890;2022-11-13T03:32:04;1.80;99.90
26224;DHT22;14820;48.682;8.890;2022-11-13T03:34:30;1.80;99.90
26224;DHT22;14820;48.682;8.890;2022-11-13T03:36:55;1.80;99.90
26224;DHT22;14820;48.682;8.890;2022-11-13T03:39:21;1.70;99.90
26224;DHT22;14820;48.682;8.890;2022-11-13T03:41:46;1.70;99.90
26224;DHT22;14820;48.682;8.890;2022-11-13T03:44:12;1.60;99.90
26224;DHT22;14820;48.682;8.890;2022-11-13T03:46:38;1.60;99.90
26224;DHT22;14820;48.682;8.890;2022-11-13T03:49:03;1.60;99.90
26224;DHT22;14820;48.682;8.890;2022-11-13T03:51:29;1.60;99.90
26224;DHT22;14820;48.682;8.890;2022-11-13T03:53:55;1.60;99.90
26224;DHT22;14820;48.682;8.890;2022-11-13T03:56:20;1.50;99.90
26224;DHT22;14820;48.682;8.890;2022-11-13T03:58:46;1.50;99.90
26224;DHT22;14820;48.682;8.890;2022-11-13T04:01:11;1.40;99.90
26224;DHT22;14820;48.682;8.890;2022-11-13T04:03:37;1.50;99.90
26224;DHT22;14820;48.682;8.890;2022-11-13T04:06:03;1.60;99.90
26224;DHT22;14820;48.682;8.890;2022-11-13T04:08:28;1.50;99.90
26224;DHT22;14820;48.682;8.890;2022-11-13T04:10:54;1.50;99.90
26224;DHT22;14820;48.682;8.890;2022-11-13T04:13:20;1.50;99.90
26224;DHT22;14820;48.682;8.890;2022-11-13T04:15:46;1.50;99.90
26224;DHT22;14820;48.682;8.890;2022-11-13T04:18:12;1.50;99.90
26224;DHT22;14820;48.682;8.890;2022-11-13T04:20:37;1.50;99.90
26224;DHT22;14820;48.682;8.890;2022-11-13T04:23:03;1.50;99.90
26224;DHT22;14820;48.682;8.890;2022-11-13T04:25:33;1.50;99.90
26224;DHT22;14820;48.682;8.890;2022-11-13T04:27:58;1.50;99.90
26224;DHT22;14820;48.682;8.890;2022-11-13T04:30:24;1.40;99.90
26224;DHT22;14820;48.682;8.890;2022-11-13T04:32:50;1.40;99.90
26224;DHT22;14820;48.682;8.890;2022-11-13T04:35:15;1.40;99.90
26224;DHT22;14820;48.682;8.890;2022-11-13T04:37:41;1.40;99.90
26224;DHT22;14820;48.682;8.890;2022-11-13T04:40:07;1.40;99.90
26224;DHT22;14820;48.682;8.890;2022-11-13T04:42:33;1.30;99.90
26224;DHT22;14820;48.682;8.890;2022-11-13T04:45:18;1.30;99.90
26224;DHT22;14820;48.682;8.890;2022-11-13T04:47:44;1.40;99.90
26224;DHT22;14820;48.682;8.890;2022-11-13T04:50:10;1.30;99.90
26224;DHT22;14820;48.682;8.890;2022-11-13T04:52:36;1.30;99.90
26224;DHT22;14820;48.682;8.890;2022-11-13T04:55:02;1.40;99.90
26224;DHT22;14820;48.682;8.890;2022-11-13T04:57:28;1.30;99.90
26224;DHT22;14820;48.682;8.890;2022-11-13T04:59:54;1.30;99.90
26224;DHT22;14820;48.682;8.890;2022-11-13T05:02:19;1.30;99.90
26224;DHT22;14820;48.682;8.890;2022-11-13T05:04:45;1.30;99.90
26224;DHT22;14820;48.682;8.890;2022-11-13T05:07:11;1.30;99.90
26224;DHT22;14820;48.682;8.890;2022-11-13T05:09:36;1.20;99.90
26224;DHT22;14820;48.682;8.890;2022-11-13T05:12:02;1.20;99.90
26224;DHT22;14820;48.682;8.890;2022-11-13T05:14:35;1.20;99.90
26224;DHT22;14820;48.682;8.890;2022-11-13T05:17:01;1.20;99.90
26224;DHT22;14820;48.682;8.890;2022-11-13T05:19:27;1.20;99.90
26224;DHT22;14820;48.682;8.890;2022-11-13T05:21:52;1.20;99.90
26224;DHT22;14820;48.682;8.890;2022-11-13T05:24:18;1.20;99.90
26224;DHT22;14820;48.682;8.890;2022-11-13T05:26:44;1.20;99.90
26224;DHT22;14820;48.682;8.890;2022-11-13T05:29:09;1.10;99.90
26224;DHT22;14820;48.682;8.890;2022-11-13T05:31:35;1.00;99.90
26224;DHT22;14820;48.682;8.890;2022-11-13T05:34:04;1.10;99.90
26224;DHT22;14820;48.682;8.890;2022-11-13T05:36:30;1.10;99.90
26224;DHT22;14820;48.682;8.890;2022-11-13T05:38:56;1.10;99.90
26224;DHT22;14820;48.682;8.890;2022-11-13T05:41:22;1.10;99.90
26224;DHT22;14820;48.682;8.890;2022-11-13T05:43:48;1.00;99.90
26224;DHT22;14820;48.682;8.890;2022-11-13T05:46:22;1.10;99.90
26224;DHT22;14820;48.682;8.890;2022-11-13T05:48:59;1.10;99.90
26224;DHT22;14820;48.682;8.890;2022-11-13T05:51:30;1.10;99.90
26224;DHT22;14820;48.682;8.890;2022-11-13T05:53:56;1.00;99.90
26224;DHT22;14820;48.682;8.890;2022-11-13T05:58:50;1.00;99.90
26224;DHT22;14820;48.682;8.890;2022-11-13T06:01:22;1.00;99.90
26224;DHT22;14820;48.682;8.890;2022-11-13T06:03:48;1.00;99.90
26224;DHT22;14820;48.682;8.890;2022-11-13T06:06:16;1.00;99.90
26224;DHT22;14820;48.682;8.890;2022-11-13T06:08:43;1.00;99.90
26224;DHT22;14820;48.682;8.890;2022-11-13T06:11:12;1.00;99.90
26224;DHT22;14820;48.682;8.890;2022-11-13T06:13:38;1.00;99.90
26224;DHT22;14820;48.682;8.890;2022-11-13T06:16:09;1.00;99.90
26224;DHT22;14820;48.682;8.890;2022-11-13T06:18:36;1.00;99.90
26224;DHT22;14820;48.682;8.890;2022-11-13T06:21:03;1.00;99.90
26224;DHT22;14820;48.682;8.890;2022-11-13T06:23:32;1.00;99.90
26224;DHT22;14820;48.682;8.890;2022-11-13T06:26:03;1.00;99.90
26224;DHT22;14820;48.682;8.890;2022-11-13T06:28:29;1.00;99.90
26224;DHT22;14820;48.682;8.890;2022-11-13T06:30:54;1.00;99.90
26224;DHT22;14820;48.682;8.890;2022-11-13T06:33:20;1.00;99.90
26224;DHT22;14820;48.682;8.890;2022-11-13T06:35:46;1.00;99.90
26224;DHT22;14820;48.682;8.890;2022-11-13T06:38:12;1.00;99.90
26224;DHT22;14820;48.682;8.890;2022-11-13T06:40:38;1.00;99.90
26224;DHT22;14820;48.682;8.890;2022-11-13T06:43:04;1.00;99.90
26224;DHT22;14820;48.682;8.890;2022-11-13T06:45:29;1.00;99.90
26224;DHT22;14820;48.682;8.890;2022-11-13T06:47:55;1.00;99.90
26224;DHT22;14820;48.682;8.890;2022-11-13T06:50:21;1.00;99.90
26224;DHT22;14820;48.682;8.890;2022-11-13T06:52:47;1.00;99.90
26224;DHT22;14820;48.682;8.890;2022-11-13T06:55:12;0.90;99.90
26224;DHT22;14820;48.682;8.890;2022-11-13T06:57:38;0.90;99.90
26224;DHT22;14820;48.682;8.890;2022-11-13T07:00:04;0.90;99.90
26224;DHT22;14820;48.682;8.890;2022-11-13T07:02:30;0.90;99.90
26224;DHT22;14820;48.682;8.890;2022-11-13T07:04:56;0.90;99.90
26224;DHT22;14820;48.682;8.890;2022-11-13T07:07:21;0.90;99.90
26224;DHT22;14820;48.682;8.890;2022-11-13T07:09:47;1.00;99.90
26224;DHT22;14820;48.682;8.890;2022-11-13T07:12:12;1.00;99.90
26224;DHT22;14820;48.682;8.890;2022-11-13T07:14:38;1.00;99.90
26224;DHT22;14820;48.682;8.890;2022-11-13T07:17:04;1.00;99.90
26224;DHT22;14820;48.682;8.890;2022-11-13T07:19:29;1.00;99.90
26224;DHT22;14820;48.682;8.890;2022-11-13T07:21:55;1.00;99.90
26224;DHT22;14820;48.682;8.890;2022-11-13T07:24:20;1.00;99.90
26224;DHT22;14820;48.682;8.890;2022-11-13T07:26:46;1.00;99.90
26224;DHT22;14820;48.682;8.890;2022-11-13T07:29:12;1.10;99.90
26224;DHT22;14820;48.682;8.890;2022-11-13T07:31:37;1.10;99.90
26224;DHT22;14820;48.682;8.890;2022-11-13T07:34:03;1.10;99.90
26224;DHT22;14820;48.682;8.890;2022-11-13T07:36:29;1.20;99.90
26224;DHT22;14820;48.682;8.890;2022-11-13T07:38:54;1.20;99.90
26224;DHT22;14820;48.682;8.890;2022-11-13T07:41:20;1.30;99.90
26224;DHT22;14820;48.682;8.890;2022-11-13T07:43:45;1.30;99.90
26224;DHT22;14820;48.682;8.890;2022-11-13T07:46:11;1.40;99.90
26224;DHT22;14820;48.682;8.890;2022-11-13T07:48:37;1.40;99.90
26224;DHT22;14820;48.682;8.890;2022-11-13T07:51:03;1.50;99.90
26224;DHT22;14820;48.682;8.890;2022-11-13T07:53:29;1.50;99.90
26224;DHT22;14820;48.682;8.890;2022-11-13T07:55:54;1.60;99.90
26224;DHT22;14820;48.682;8.890;2022-11-13T07:58:20;1.60;99.90
26224;DHT22;14820;48.682;8.890;2022-11-13T08:00:46;1.70;99.90
26224;DHT22;14820;48.682;8.890;2022-11-13T08:03:14;1.80;99.90
26224;DHT22;14820;48.682;8.890;2022-11-13T08:05:40;1.80;99.90
26224;DHT22;14820;48.682;8.890;2022-11-13T08:08:07;1.80;99.90
26224;DHT22;14820;48.682;8.890;2022-11-13T08:10:35;1.90;99.90
26224;DHT22;14820;48.682;8.890;2022-11-13T08:13:04;2.00;99.90
26224;DHT22;14820;48.682;8.890;2022-11-13T08:15:30;2.10;99.90
26224;DHT22;14820;48.682;8.890;2022-11-13T08:17:57;2.20;99.90
26224;DHT22;14820;48.682;8.890;2022-11-13T08:20:24;2.20;99.90
26224;DHT22;14820;48.682;8.890;2022-11-13T08:22:50;2.20;99.90
26224;DHT22;14820;48.682;8.890;2022-11-13T08:25:16;2.30;99.90
26224;DHT22;14820;48.682;8.890;2022-11-13T08:27:42;2.40;99.90
26224;DHT22;14820;48.682;8.890;2022-11-13T08:30:08;2.50;99.90
26224;DHT22;14820;48.682;8.890;2022-11-13T08:32:34;2.60;99.90
26224;DHT22;14820;48.682;8.890;2022-11-13T08:35:00;2.60;99.90
26224;DHT22;14820;48.682;8.890;2022-11-13T08:37:25;2.70;99.90
26224;DHT22;14820;48.682;8.890;2022-11-13T08:39:51;2.70;99.90
26224;DHT22;14820;48.682;8.890;2022-11-13T08:42:16;2.90;99.90
26224;DHT22;14820;48.682;8.890;2022-11-13T08:44:42;2.90;99.90
26224;DHT22;14820;48.682;8.890;2022-11-13T08:47:08;3.00;99.90
26224;DHT22;14820;48.682;8.890;2022-11-13T08:49:33;3.10;99.90
26224;DHT22;14820;48.682;8.890;2022-11-13T08:51:59;3.10;99.90
26224;DHT22;14820;48.682;8.890;2022-11-13T08:54:25;3.30;99.90
26224;DHT22;14820;48.682;8.890;2022-11-13T08:56:51;3.40;99.90
26224;DHT22;14820;48.682;8.890;2022-11-13T08:59:16;3.50;99.90
26224;DHT22;14820;48.682;8.890;2022-11-13T09:01:42;3.50;99.90
26224;DHT22;14820;48.682;8.890;2022-11-13T09:04:08;3.60;99.90
26224;DHT22;14820;48.682;8.890;2022-11-13T09:06:33;3.80;99.90
26224;DHT22;14820;48.682;8.890;2022-11-13T09:08:59;3.80;99.90
26224;DHT22;14820;48.682;8.890;2022-11-13T09:11:25;3.90;99.90
26224;DHT22;14820;48.682;8.890;2022-11-13T09:13:54;4.00;99.90
26224;DHT22;14820;48.682;8.890;2022-11-13T09:16:20;4.10;99.90
26224;DHT22;14820;48.682;8.890;2022-11-13T09:18:49;4.20;99.90
26224;DHT22;14820;48.682;8.890;2022-11-13T09:21:15;4.30;99.90
26224;DHT22;14820;48.682;8.890;2022-11-13T09:23:42;4.40;99.90
26224;DHT22;14820;48.682;8.890;2022-11-13T09:26:07;4.50;99.90
26224;DHT22;14820;48.682;8.890;2022-11-13T09:28:33;4.70;99.90
26224;DHT22;14820;48.682;8.890;2022-11-13T09:30:59;4.80;99.90
26224;DHT22;14820;48.682;8.890;2022-11-13T09:33:27;4.80;99.90
26224;DHT22;14820;48.682;8.890;2022-11-13T09:35:53;4.90;99.90
26224;DHT22;14820;48.682;8.890;2022-11-13T09:38:19;5.10;99.90
26224;DHT22;14820;48.682;8.890;2022-11-13T09:41:01;5.10;99.90
26224;DHT22;14820;48.682;8.890;2022-11-13T09:43:35;5.20;99.90
26224;DHT22;14820;48.682;8.890;2022-11-13T09:46:26;5.40;99.90
26224;DHT22;14820;48.682;8.890;2022-11-13T09:49:15;5.50;99.90
26224;DHT22;14820;48.682;8.890;2022-11-13T09:51:50;5.70;99.90
26224;DHT22;14820;48.682;8.890;2022-11-13T09:54:16;5.80;99.90
26224;DHT22;14820;48.682;8.890;2022-11-13T09:56:58;6.00;99.90
26224;DHT22;14820;48.682;8.890;2022-11-13T09:59:58;6.10;99.90
26224;DHT22;14820;48.682;8.890;2022-11-13T10:08:37;6.60;99.90
26224;DHT22;14820;48.682;8.890;2022-11-13T10:11:30;6.80;99.90
26224;DHT22;14820;48.682;8.890;2022-11-13T10:14:50;6.90;99.90
26224;DHT22;14820;48.682;8.890;2022-11-13T10:17:39;7.10;99.90
26224;DHT22;14820;48.682;8.890;2022-11-13T10:20:18;7.30;99.90
26224;DHT22;14820;48.682;8.890;2022-11-13T10:22:51;7.50;99.90
26224;DHT22;14820;48.682;8.890;2022-11-13T10:25:20;7.50;99.90
26224;DHT22;14820;48.682;8.890;2022-11-13T10:27:56;7.60;99.90
26224;DHT22;14820;48.682;8.890;2022-11-13T10:30:22;7.80;99.90
26224;DHT22;14820;48.682;8.890;2022-11-13T10:32:48;7.80;99.90
26224;DHT22;14820;48.682;8.890;2022-11-13T10:38:42;8.20;99.90
26224;DHT22;14820;48.682;8.890;2022-11-13T10:41:17;8.30;99.90
26224;DHT22;14820;48.682;8.890;2022-11-13T10:44:05;8.40;99.90
26224;DHT22;14820;48.682;8.890;2022-11-13T10:46:32;8.50;99.90
26224;DHT22;14820;48.682;8.890;2022-11-13T10:49:19;8.60;99.90
26224;DHT22;14820;48.682;8.890;2022-11-13T10:51:57;8.70;99.90
26224;DHT22;14820;48.682;8.890;2022-11-13T10:54:28;8.80;99.90
26224;DHT22;14820;48.682;8.890;2022-11-13T10:59:43;9.10;99.90
26224;DHT22;14820;48.682;8.890;2022-11-13T11:02:17;9.20;99.90
26224;DHT22;14820;48.682;8.890;2022-11-13T11:04:43;9.30;99.90
26224;DHT22;14820;48.682;8.890;2022-11-13T11:09:41;9.50;99.90
26224;DHT22;14820;48.682;8.890;2022-11-13T11:12:19;9.50;99.90
26224;DHT22;14820;48.682;8.890;2022-11-13T11:17:52;9.60;99.90
26224;DHT22;14820;48.682;8.890;2022-11-13T11:20:31;9.80;99.90
26224;DHT22;14820;48.682;8.890;2022-11-13T11:25:39;9.90;99.90
26224;DHT22;14820;48.682;8.890;2022-11-13T11:28:24;9.90;99.90
26224;DHT22;14820;48.682;8.890;2022-11-13T11:39:34;10.20;99.90
26224;DHT22;14820;48.682;8.890;2022-11-13T11:47:13;10.40;99.90
26224;DHT22;14820;48.682;8.890;2022-11-13T11:49:44;10.50;99.90
26224;DHT22;14820;48.682;8.890;2022-11-13T11:55:30;10.70;99.90
26224;DHT22;14820;48.682;8.890;2022-11-13T11:58:03;10.70;99.90
26224;DHT22;14820;48.682;8.890;2022-11-13T12:00:32;10.80;99.90
26224;DHT22;14820;48.682;8.890;2022-11-13T12:06:03;10.90;99.90
26224;DHT22;14820;48.682;8.890;2022-11-13T12:08:52;11.00;99.90
26224;DHT22;14820;48.682;8.890;2022-11-13T12:11:31;11.00;99.90
26224;DHT22;14820;48.682;8.890;2022-11-13T12:14:19;11.00;99.90
26224;DHT22;14820;48.682;8.890;2022-11-13T12:28:32;11.10;99.90
26224;DHT22;14820;48.682;8.890;2022-11-13T12:36:35;11.20;99.90
26224;DHT22;14820;48.682;8.890;2022-11-13T12:41:58;11.20;99.90
26224;DHT22;14820;48.682;8.890;2022-11-13T12:44:29;11.20;99.90
26224;DHT22;14820;48.682;8.890;2022-11-13T12:46:56;11.30;99.90
26224;DHT22;14820;48.682;8.890;2022-11-13T12:51:58;11.30;99.90
26224;DHT22;14820;48.682;8.890;2022-11-13T12:54:32;11.30;99.90
26224;DHT22;14820;48.682;8.890;2022-11-13T12:59:43;11.30;99.90
26224;DHT22;14820;48.682;8.890;2022-11-13T13:15:37;11.50;99.90
26224;DHT22;14820;48.682;8.890;2022-11-13T13:18:08;11.50;99.90
26224;DHT22;14820;48.682;8.890;2022-11-13T13:20:40;11.50;99.90
26224;DHT22;14820;48.682;8.890;2022-11-13T13:23:10;11.50;99.90
26224;DHT22;14820;48.682;8.890;2022-11-13T13:25:37;11.50;99.90
26224;DHT22;14820;48.682;8.890;2022-11-13T13:30:43;11.60;99.90
26224;DHT22;14820;48.682;8.890;2022-11-13T13:33:40;11.70;99.90
26224;DHT22;14820;48.682;8.890;2022-11-13T13:47:25;11.80;99.90
26224;DHT22;14820;48.682;8.890;2022-11-13T13:49:52;11.80;99.90
26224;DHT22;14820;48.682;8.890;2022-11-13T13:52:27;11.80;99.90
26224;DHT22;14820;48.682;8.890;2022-11-13T13:54:54;11.90;99.90
26224;DHT22;14820;48.682;8.890;2022-11-13T13:57:21;11.90;99.90
26224;DHT22;14820;48.682;8.890;2022-11-13T13:59:48;12.00;99.90
26224;DHT22;14820;48.682;8.890;2022-11-13T14:02:19;12.10;99.90
26224;DHT22;14820;48.682;8.890;2022-11-13T14:04:50;12.10;99.90
26224;DHT22;14820;48.682;8.890;2022-11-13T14:09:44;12.20;99.90
26224;DHT22;14820;48.682;8.890;2022-11-13T14:12:18;12.30;99.90
26224;DHT22;14820;48.682;8.890;2022-11-13T14:14:44;12.40;99.90
26224;DHT22;14820;48.682;8.890;2022-11-13T14:17:11;12.50;99.90
26224;DHT22;14820;48.682;8.890;2022-11-13T14:19:37;12.50;99.90
26224;DHT22;14820;48.682;8.890;2022-11-13T14:22:04;12.60;99.90
26224;DHT22;14820;48.682;8.890;2022-11-13T14:24:40;12.60;99.90
26224;DHT22;14820;48.682;8.890;2022-11-13T14:27:13;12.70;99.90
26224;DHT22;14820;48.682;8.890;2022-11-13T14:29:48;12.80;99.90
26224;DHT22;14820;48.682;8.890;2022-11-13T14:32:28;12.90;99.90
26224;DHT22;14820;48.682;8.890;2022-11-13T14:34:58;12.90;99.90
26224;DHT22;14820;48.682;8.890;2022-11-13T14:37:38;13.00;99.90
26224;DHT22;14820;48.682;8.890;2022-11-13T14:42:57;13.00;99.90
26224;DHT22;14820;48.682;8.890;2022-11-13T14:45:29;12.90;99.90
26224;DHT22;14820;48.682;8.890;2022-11-13T14:50:55;12.80;99.90
26224;DHT22;14820;48.682;8.890;2022-11-13T14:53:26;12.70;99.90
26224;DHT22;14820;48.682;8.890;2022-11-13T14:55:55;12.70;99.90
26224;DHT22;14820;48.682;8.890;2022-11-13T14:58:32;12.60;99.90
26224;DHT22;14820;48.682;8.890;2022-11-13T15:01:18;12.60;99.90
26224;DHT22;14820;48.682;8.890;2022-11-13T15:03:44;12.40;99.90
26224;DHT22;14820;48.682;8.890;2022-11-13T15:06:15;12.30;99.90
26224;DHT22;14820;48.682;8.890;2022-11-13T15:08:43;12.10;99.90
26224;DHT22;14820;48.682;8.890;2022-11-13T15:11:12;11.90;99.90
26224;DHT22;14820;48.682;8.890;2022-11-13T15:13:38;11.70;99.90
26224;DHT22;14820;48.682;8.890;2022-11-13T15:16:04;11.50;99.90
26224;DHT22;14820;48.682;8.890;2022-11-13T15:18:30;11.30;99.90
26224;DHT22;14820;48.682;8.890;2022-11-13T15:20:56;11.20;99.90
26224;DHT22;14820;48.682;8.890;2022-11-13T15:23:24;11.00;99.90
26224;DHT22;14820;48.682;8.890;2022-11-13T15:25:50;10.90;99.90
26224;DHT22;14820;48.682;8.890;2022-11-13T15:28:16;10.80;99.90
26224;DHT22;14820;48.682;8.890;2022-11-13T15:30:42;10.70;99.90
26224;DHT22;14820;48.682;8.890;2022-11-13T15:33:16;10.60;99.90
26224;DHT22;14820;48.682;8.890;2022-11-13T15:35:42;10.50;99.90
26224;DHT22;14820;48.682;8.890;2022-11-13T15:38:11;10.40;99.90
26224;DHT22;14820;48.682;8.890;2022-11-13T15:40:37;10.30;99.90
26224;DHT22;14820;48.682;8.890;2022-11-13T15:43:04;10.20;99.90
26224;DHT22;14820;48.682;8.890;2022-11-13T15:45:30;10.10;99.90
26224;DHT22;14820;48.682;8.890;2022-11-13T15:47:55;10.00;99.90
26224;DHT22;14820;48.682;8.890;2022-11-13T15:50:21;9.90;99.90
26224;DHT22;14820;48.682;8.890;2022-11-13T15:52:49;9.80;99.90
26224;DHT22;14820;48.682;8.890;2022-11-13T15:55:20;9.60;99.90
26224;DHT22;14820;48.682;8.890;2022-11-13T15:57:48;9.50;99.90
26224;DHT22;14820;48.682;8.890;2022-11-13T16:00:15;9.30;99.90
26224;DHT22;14820;48.682;8.890;2022-11-13T16:02:41;9.20;99.90
26224;DHT22;14820;48.682;8.890;2022-11-13T16:05:07;9.20;99.90
26224;DHT22;14820;48.682;8.890;2022-11-13T16:07:33;9.10;99.90
26224;DHT22;14820;48.682;8.890;2022-11-13T16:09:59;9.00;99.90
26224;DHT22;14820;48.682;8.890;2022-11-13T16:12:24;9.00;99.90
26224;DHT22;14820;48.682;8.890;2022-11-13T16:14:50;8.90;99.90
26224;DHT22;14820;48.682;8.890;2022-11-13T16:17:17;8.80;99.90
26224;DHT22;14820;48.682;8.890;2022-11-13T16:19:46;8.60;99.90
26224;DHT22;14820;48.682;8.890;2022-11-13T16:22:21;8.60;99.90
26224;DHT22;14820;48.682;8.890;2022-11-13T16:24:47;8.60;99.90
26224;DHT22;14820;48.682;8.890;2022-11-13T16:27:16;8.50;99.90
26224;DHT22;14820;48.682;8.890;2022-11-13T16:29:44;8.40;99.90
26224;DHT22;14820;48.682;8.890;2022-11-13T16:32:16;8.20;99.90
26224;DHT22;14820;48.682;8.890;2022-11-13T16:34:43;8.10;99.90
26224;DHT22;14820;48.682;8.890;2022-11-13T16:37:22;8.00;99.90
26224;DHT22;14820;48.682;8.890;2022-11-13T16:39:48;7.90;99.90
26224;DHT22;14820;48.682;8.890;2022-11-13T16:42:15;7.80;99.90
26224;DHT22;14820;48.682;8.890;2022-11-13T16:44:41;7.70;99.90
26224;DHT22;14820;48.682;8.890;2022-11-13T16:47:25;7.60;99.90
26224;DHT22;14820;48.682;8.890;2022-11-13T16:49:51;7.50;99.90
26224;DHT22;14820;48.682;8.890;2022-11-13T16:52:17;7.40;99.90
26224;DHT22;14820;48.682;8.890;2022-11-13T16:54:43;7.30;99.90
26224;DHT22;14820;48.682;8.890;2022-11-13T16:57:10;7.20;99.90
26224;DHT22;14820;48.682;8.890;2022-11-13T16:59:36;7.10;99.90
26224;DHT22;14820;48.682;8.890;2022-11-13T17:02:02;7.00;99.90
26224;DHT22;14820;48.682;8.890;2022-11-13T17:04:27;6.90;99.90
26224;DHT22;14820;48.682;8.890;2022-11-13T17:06:53;6.90;99.90
26224;DHT22;14820;48.682;8.890;2022-11-13T17:09:19;6.90;99.90
26224;DHT22;14820;48.682;8.890;2022-11-13T17:11:44;6.80;99.90
26224;DHT22;14820;48.682;8.890;2022-11-13T17:14:10;6.80;99.90
26224;DHT22;14820;48.682;8.890;2022-11-13T17:16:36;6.80;99.90
26224;DHT22;14820;48.682;8.890;2022-11-13T17:19:02;6.70;99.90
26224;DHT22;14820;48.682;8.890;2022-11-13T17:21:28;6.60;99.90
26224;DHT22;14820;48.682;8.890;2022-11-13T17:23:59;6.60;99.90
26224;DHT22;14820;48.682;8.890;2022-11-13T17:26:28;6.50;99.90
26224;DHT22;14820;48.682;8.890;2022-11-13T17:28:55;6.40;99.90
26224;DHT22;14820;48.682;8.890;2022-11-13T17:31:23;6.30;99.90
26224;DHT22;14820;48.682;8.890;2022-11-13T17:33:51;6.20;99.90
26224;DHT22;14820;48.682;8.890;2022-11-13T17:36:18;6.20;99.90
26224;DHT22;14820;48.682;8.890;2022-11-13T17:38:43;6.10;99.90
26224;DHT22;14820;48.682;8.890;2022-11-13T17:41:11;6.10;99.90
26224;DHT22;14820;48.682;8.890;2022-11-13T17:43:38;6.10;99.90